Time;durP1;ratioP1;P1;durP2;ratioP2;P2;SDS_P1;SDS_P2;PMS_P1;PMS_P2;Temp;Humidity;BMP_temperature;BMP_pressure;BME280_temperature;BME280_humidity;BME280_pressure;Samples;Min_cycle;Max_cycle;Signal;HPM_P1;HPM_P2
2022/05/22 00:01:00;;;;;;;7.87;2.10;;;;;;;16.75;52.91;98672.91;1709946;84;21541;-81
2022/05/22 00:03:26;;;;;;;5.05;1.87;;;;;;;16.69;53.04;98671.03;1707042;83;21009;-79
2022/05/22 00:05:53;;;;;;;7.33;1.87;;;;;;;16.62;53.03;98672.77;1700985;84;21047;-79
2022/05/22 00:08:20;;;;;;;4.28;2.20;;;;;;;16.56;52.87;98666.09;1710303;84;21084;-78
2022/05/22 00:10:47;;;;;;;6.25;1.82;;;;;;;16.51;54.15;98666.80;1698009;84;21003;-80
2022/05/22 00:13:14;;;;;;;8.03;2.15;;;;;;;16.47;53.93;98663.97;1709958;84;20956;-80
2022/05/22 00:16:36;;;;;;;7.42;2.00;;;;;;;16.42;53.75;98676.52;1697043;84;21527;-81
2022/05/22 00:18:10;;;;;;;7.65;2.05;;;;;;;16.37;53.78;98677.22;1706556;84;21040;-80
2022/05/22 00:20:36;;;;;;;5.28;1.87;;;;;;;16.31;54.89;98683.64;1701269;83;21033;-80
2022/05/22 00:23:03;;;;;;;6.30;2.20;;;;;;;16.26;54.04;98688.32;1697451;84;21022;-80
2022/05/22 00:25:30;;;;;;;3.67;1.72;;;;;;;16.21;54.27;98681.16;1700344;84;21637;-80
2022/05/22 00:27:58;;;;;;;9.80;2.27;;;;;;;16.16;54.67;98678.80;1706819;83;20984;-79
2022/05/22 00:30:25;;;;;;;4.97;2.00;;;;;;;16.13;54.23;98685.97;1702622;84;21015;-80
2022/05/22 00:32:52;;;;;;;7.35;2.15;;;;;;;16.09;55.91;98677.42;1710793;83;21032;-80
2022/05/22 00:35:18;;;;;;;5.35;2.15;;;;;;;16.07;55.43;98683.22;1708935;84;21051;-80
2022/05/22 00:37:45;;;;;;;4.30;2.10;;;;;;;16.05;54.75;98678.52;1713415;84;21036;-80
2022/05/22 00:40:12;;;;;;;8.20;2.85;;;;;;;16.02;54.71;98685.26;1703026;84;21515;-81
2022/05/22 00:42:42;;;;;;;7.22;2.15;;;;;;;15.96;55.29;98669.86;1712633;84;21565;-80
2022/05/22 00:45:08;;;;;;;7.80;2.10;;;;;;;15.98;56.70;98678.02;1711049;83;21538;-80
2022/05/22 00:47:35;;;;;;;7.42;1.90;;;;;;;15.97;55.27;98678.93;1692733;83;21014;-81
2022/05/22 00:50:04;;;;;;;7.87;2.00;;;;;;;15.94;54.83;98680.42;1704159;83;21036;-81
2022/05/22 00:52:42;;;;;;;4.62;2.10;;;;;;;15.89;55.34;98677.19;1698556;84;21975;-81
2022/05/22 00:55:22;;;;;;;6.33;2.15;;;;;;;15.87;55.45;98677.73;1701709;83;20986;-78
2022/05/22 00:57:54;;;;;;;4.62;2.00;;;;;;;15.84;54.99;98680.06;1703223;84;22204;-80
2022/05/22 01:00:29;;;;;;;5.78;2.02;;;;;;;15.81;55.88;98679.38;1713112;83;21056;-80
2022/05/22 01:05:44;;;;;;;5.33;2.05;;;;;;;15.75;55.88;98672.67;1699449;84;21578;-81
2022/05/22 01:08:12;;;;;;;8.18;2.12;;;;;;;15.72;57.33;98674.14;1696394;84;21119;-80
2022/05/22 01:11:05;;;;;;;12.93;2.35;;;;;;;15.70;55.66;98672.90;1694134;84;21016;-81
2022/05/22 01:13:39;;;;;;;6.25;2.02;;;;;;;15.68;55.36;98678.69;1707897;84;21500;-80
2022/05/22 01:16:06;;;;;;;7.72;2.25;;;;;;;15.64;55.44;98672.39;1713291;84;21492;-80
2022/05/22 01:18:55;;;;;;;3.55;1.67;;;;;;;15.61;55.53;98674.68;1706147;84;21011;-80
2022/05/22 01:21:28;;;;;;;10.55;1.95;;;;;;;15.59;55.43;98683.09;1686235;84;21315;-81
2022/05/22 01:23:55;;;;;;;7.10;1.90;;;;;;;15.56;56.21;98675.41;1690888;84;21008;-80
2022/05/22 01:26:26;;;;;;;2.80;1.80;;;;;;;15.54;56.00;98672.45;1700483;84;21318;-79
2022/05/22 01:29:07;;;;;;;5.37;1.87;;;;;;;15.51;55.44;98673.47;1710439;84;21523;-81
2022/05/22 01:31:33;;;;;;;5.53;2.05;;;;;;;15.48;55.04;98676.27;1705495;84;21064;-80
2022/05/22 01:34:02;;;;;;;4.67;1.60;;;;;;;15.45;55.54;98670.70;1723663;83;21009;-80
2022/05/22 01:36:29;;;;;;;4.40;1.70;;;;;;;15.42;55.57;98666.95;1702884;83;21536;-80
2022/05/22 01:38:57;;;;;;;4.22;1.85;;;;;;;15.40;55.22;98664.88;1724427;83;21007;-81
2022/05/22 01:41:25;;;;;;;8.45;1.98;;;;;;;15.36;56.03;98659.41;1731691;83;21083;-80
2022/05/22 01:43:53;;;;;;;6.65;2.05;;;;;;;15.35;55.22;98666.03;1730197;83;21039;-79
2022/05/22 01:46:21;;;;;;;8.78;2.00;;;;;;;15.31;55.75;98658.78;1729198;83;21414;-80
2022/05/22 01:48:53;;;;;;;7.90;2.02;;;;;;;15.28;55.35;98662.89;1725788;83;20989;-79
2022/05/22 01:51:22;;;;;;;8.33;1.75;;;;;;;15.25;55.43;98666.96;1718345;83;21066;-80
2022/05/22 01:53:48;;;;;;;2.85;1.70;;;;;;;15.21;56.73;98670.66;1726458;83;21499;-80
2022/05/22 01:56:15;;;;;;;6.95;1.90;;;;;;;15.15;55.69;98677.05;1694834;83;21002;-80
2022/05/22 01:58:43;;;;;;;5.70;2.02;;;;;;;15.12;56.00;98668.06;1729152;83;21027;-79
2022/05/22 02:01:11;;;;;;;5.35;1.80;;;;;;;15.08;56.25;98666.48;1729410;83;21022;-81
2022/05/22 02:03:38;;;;;;;3.58;1.70;;;;;;;15.04;55.93;98670.19;1731154;83;21015;-79
2022/05/22 02:06:06;;;;;;;5.92;1.82;;;;;;;14.95;56.44;98674.13;1730343;83;21096;-80
2022/05/22 02:08:33;;;;;;;3.52;1.80;;;;;;;14.90;56.43;98671.75;1728760;83;21009;-79
2022/05/22 02:11:04;;;;;;;2.98;1.80;;;;;;;14.85;56.71;98671.58;1725665;83;21446;-80
2022/05/22 02:13:39;;;;;;;4.12;1.87;;;;;;;14.82;56.62;98676.52;1731959;83;21494;-79
2022/05/22 02:16:08;;;;;;;4.85;2.00;;;;;;;14.79;56.49;98674.50;1728192;83;21516;-81
2022/05/22 02:18:34;;;;;;;7.80;2.15;;;;;;;14.76;56.09;98672.86;1728380;83;21023;-79
2022/05/22 02:21:01;;;;;;;2.95;1.82;;;;;;;14.71;56.77;98678.80;1711854;83;21080;-81
2022/05/22 02:23:32;;;;;;;4.53;2.20;;;;;;;14.70;56.30;98671.41;1721842;83;21495;-80
2022/05/22 02:25:59;;;;;;;4.72;1.90;;;;;;;14.68;55.96;98669.77;1714207;83;20996;-80
2022/05/22 02:28:28;;;;;;;4.70;2.35;;;;;;;14.64;56.62;98673.02;1730566;83;21733;-80
2022/05/22 02:30:59;;;;;;;3.55;1.67;;;;;;;14.60;56.41;98670.14;1730789;83;21055;-80
2022/05/22 02:33:27;;;;;;;5.72;1.92;;;;;;;14.58;56.73;98669.84;1709646;83;21565;-79
2022/05/22 02:35:56;;;;;;;6.97;2.00;;;;;;;14.55;56.56;98681.73;1723890;83;21578;-79
2022/05/22 02:38:36;;;;;;;5.67;1.87;;;;;;;14.50;56.19;98676.70;1716547;83;21002;-82
2022/05/22 02:41:16;;;;;;;3.17;1.82;;;;;;;14.46;56.87;98681.70;1727845;83;20991;-82
2022/05/22 02:43:44;;;;;;;5.95;1.87;;;;;;;14.42;56.25;98671.84;1728947;83;20982;-81
2022/05/22 02:46:14;;;;;;;6.05;1.95;;;;;;;14.39;56.80;98673.31;1706651;83;20988;-82
2022/05/22 02:48:42;;;;;;;5.30;2.00;;;;;;;14.38;56.58;98668.98;1728063;83;20960;-81
2022/05/22 02:51:13;;;;;;;3.77;1.70;;;;;;;14.36;57.21;98675.22;1726793;83;21019;-80
2022/05/22 02:53:41;;;;;;;4.85;2.20;;;;;;;14.36;57.68;98681.75;1718418;83;21032;-82
2022/05/22 02:56:28;;;;;;;5.42;2.10;;;;;;;14.38;57.79;98678.60;1698652;83;21088;-80
2022/05/22 02:59:13;;;;;;;3.17;1.80;;;;;;;14.38;57.46;98683.36;1720153;83;21111;-81
2022/05/22 03:01:51;;;;;;;5.10;1.85;;;;;;;14.39;57.41;98686.38;1682197;83;21008;-82
2022/05/22 03:04:18;;;;;;;6.05;1.80;;;;;;;14.41;56.59;98688.94;1717560;83;21034;-82
2022/05/22 03:06:47;;;;;;;2.98;1.87;;;;;;;14.42;57.40;98686.22;1728801;83;21002;-82
2022/05/22 03:09:16;;;;;;;7.53;2.05;;;;;;;14.43;56.51;98687.93;1720328;83;21466;-79
2022/05/22 03:11:45;;;;;;;4.92;1.98;;;;;;;14.43;56.48;98693.16;1707911;83;21014;-82
2022/05/22 03:14:13;;;;;;;4.12;1.80;;;;;;;14.43;56.24;98693.16;1724322;83;21012;-81
2022/05/22 03:16:40;;;;;;;4.15;2.02;;;;;;;14.39;56.83;98696.84;1727411;83;21003;-82
2022/05/22 03:19:15;;;;;;;5.45;2.17;;;;;;;14.39;57.16;98693.39;1723841;83;21003;-81
2022/05/22 03:21:42;;;;;;;4.03;2.02;;;;;;;14.37;56.61;98698.69;1709950;83;21069;-82
2022/05/22 03:24:09;;;;;;;6.70;2.20;;;;;;;14.35;57.55;98700.52;1725104;83;20991;-80
2022/05/22 03:26:38;;;;;;;5.42;2.10;;;;;;;14.32;57.21;98708.50;1704659;83;21037;-81
2022/05/22 03:29:04;;;;;;;5.42;1.90;;;;;;;14.29;57.64;98705.58;1705232;83;20995;-80
2022/05/22 03:31:31;;;;;;;4.95;2.02;;;;;;;14.30;57.34;98703.36;1684261;85;22230;-81
2022/05/22 03:33:58;;;;;;;4.10;1.90;;;;;;;14.29;57.39;98702.96;1698314;83;20997;-83
2022/05/22 03:36:25;;;;;;;3.85;2.20;;;;;;;14.30;57.22;98703.36;1666861;85;21024;-81
2022/05/22 03:38:53;;;;;;;5.03;2.20;;;;;;;14.29;56.94;98708.19;1692565;83;20969;-80
2022/05/22 03:41:19;;;;;;;6.83;2.47;;;;;;;14.27;57.43;98700.04;1696884;83;22097;-80
2022/05/22 03:43:46;;;;;;;5.28;2.05;;;;;;;14.26;57.81;98702.25;1681020;83;21043;-81
2022/05/22 03:46:28;;;;;;;6.58;2.37;;;;;;;14.26;58.10;98700.94;1677364;84;21024;-81
2022/05/22 03:48:54;;;;;;;7.00;2.25;;;;;;;14.27;57.45;98700.88;1694243;83;21519;-80
2022/05/22 03:51:23;;;;;;;6.95;2.05;;;;;;;14.30;57.38;98707.72;1711720;83;21057;-80
2022/05/22 03:53:50;;;;;;;4.65;2.00;;;;;;;14.30;57.75;98707.72;1703282;83;21020;-81
2022/05/22 03:56:20;;;;;;;6.40;2.30;;;;;;;14.31;58.35;98708.97;1706941;83;21095;-81
2022/05/22 03:58:47;;;;;;;3.75;2.10;;;;;;;14.33;58.29;98706.29;1692872;84;21028;-80
2022/05/22 04:01:15;;;;;;;4.50;1.87;;;;;;;14.37;57.81;98710.45;1701778;83;21020;-82
2022/05/22 04:03:43;;;;;;;9.43;2.27;;;;;;;14.40;57.62;98710.29;1692891;84;21030;-81
2022/05/22 04:06:12;;;;;;;5.78;2.52;;;;;;;14.42;58.16;98715.45;1682710;84;21170;-81
2022/05/22 04:08:40;;;;;;;10.05;2.33;;;;;;;14.48;58.12;98715.16;1704100;83;21049;-80
2022/05/22 04:11:11;;;;;;;3.70;2.20;;;;;;;14.54;58.61;98721.41;1701147;83;21065;-80
2022/05/22 04:13:39;;;;;;;10.15;2.33;;;;;;;14.60;57.90;98724.23;1692958;85;21496;-81
2022/05/22 04:16:06;;;;;;;3.00;1.98;;;;;;;14.64;57.55;98718.81;1697216;83;21023;-81
2022/05/22 04:18:33;;;;;;;6.47;2.00;;;;;;;14.70;58.34;98722.88;1684635;85;21053;-80
2022/05/22 04:21:01;;;;;;;5.65;2.08;;;;;;;14.76;57.69;98722.58;1675427;83;21137;-81
2022/05/22 04:26:30;;;;;;;13.15;2.40;;;;;;;14.87;57.80;98721.61;1700197;83;21019;-81
2022/05/22 04:28:58;;;;;;;6.97;2.17;;;;;;;14.95;57.19;98729.09;1680592;83;21491;-82
2022/05/22 04:31:27;;;;;;;5.95;2.10;;;;;;;15.01;56.92;98732.72;1672547;83;21008;-81
2022/05/22 04:33:58;;;;;;;7.60;2.12;;;;;;;15.07;57.26;98742.05;1724040;83;21629;-81
2022/05/22 04:36:25;;;;;;;13.25;2.35;;;;;;;15.14;57.36;98739.52;1721581;83;21545;-80
2022/05/22 04:38:51;;;;;;;3.72;2.05;;;;;;;15.23;57.48;98735.12;1726523;83;21022;-81
2022/05/22 04:41:18;;;;;;;4.75;1.90;;;;;;;15.30;57.63;98739.14;1732166;83;21087;-81
2022/05/22 04:43:45;;;;;;;8.65;2.30;;;;;;;15.43;56.90;98741.97;1714031;83;20995;-80
2022/05/22 04:46:13;;;;;;;5.55;2.10;;;;;;;15.53;57.10;98733.19;1711131;83;21118;-81
2022/05/22 04:48:40;;;;;;;5.28;2.30;;;;;;;15.63;56.74;98730.47;1731405;83;21159;-81
2022/05/22 04:51:06;;;;;;;9.28;2.22;;;;;;;15.74;56.82;98726.48;1711609;83;21491;-81
2022/05/22 04:53:35;;;;;;;6.70;2.72;;;;;;;15.86;56.68;98733.25;1731077;83;21003;-78
2022/05/22 04:56:06;;;;;;;6.20;2.00;;;;;;;15.98;55.95;98730.92;1726599;83;21040;-79
2022/05/22 04:58:34;;;;;;;5.40;1.80;;;;;;;16.12;55.71;98728.87;1722415;83;21496;-81
2022/05/22 05:01:08;;;;;;;5.78;1.80;;;;;;;16.23;55.44;98723.41;1731052;83;21035;-81
2022/05/22 05:03:37;;;;;;;7.80;1.75;;;;;;;16.38;54.73;98726.16;1731124;83;21038;-80
2022/05/22 05:06:04;;;;;;;6.22;1.80;;;;;;;16.53;54.32;98733.63;1726894;83;21035;-80
2022/05/22 05:08:33;;;;;;;5.12;1.87;;;;;;;16.64;53.82;98730.80;1726733;83;21011;-80
2022/05/22 05:11:02;;;;;;;4.78;1.98;;;;;;;16.78;53.55;98733.13;1728228;83;21059;-80
2022/05/22 05:13:30;;;;;;;4.62;1.60;;;;;;;16.89;53.02;98727.67;1730873;83;21519;-81
2022/05/22 05:16:05;;;;;;;3.98;1.98;;;;;;;16.97;52.27;98726.38;1721658;83;21074;-80
2022/05/22 05:18:35;;;;;;;6.35;2.02;;;;;;;17.05;52.15;98725.47;1730307;83;20973;-80
2022/05/22 05:21:07;;;;;;;3.87;1.82;;;;;;;17.10;52.06;98719.49;1728449;82;21067;-79
2022/05/22 05:23:35;;;;;;;5.33;2.00;;;;;;;17.19;51.60;98715.03;1710867;83;21486;-80
2022/05/22 05:26:10;;;;;;;4.50;1.90;;;;;;;17.23;51.54;98723.11;1724715;83;21011;-80
2022/05/22 05:28:37;;;;;;;7.28;1.77;;;;;;;17.27;51.05;98723.30;1731839;83;21110;-81
2022/05/22 05:31:04;;;;;;;5.90;1.75;;;;;;;17.33;50.98;98726.48;1728478;83;20962;-80
2022/05/22 05:33:33;;;;;;;6.50;1.80;;;;;;;17.34;50.19;98729.52;1726324;83;21508;-82
2022/05/22 05:36:10;;;;;;;6.60;1.92;;;;;;;17.34;50.75;98721.16;1700022;84;21064;-81
2022/05/22 05:38:48;;;;;;;3.83;1.80;;;;;;;17.36;50.56;98730.27;1605395;89;21050;-80
2022/05/22 05:41:17;;;;;;;5.25;2.42;;;;;;;17.41;50.59;98728.23;1702399;84;20993;-81
2022/05/22 05:43:45;;;;;;;3.95;1.70;;;;;;;17.42;50.54;98720.70;1713687;84;20992;-80
2022/05/22 05:46:11;;;;;;;7.95;1.90;;;;;;;17.45;49.81;98724.48;1708607;83;20965;-80
2022/05/22 05:48:39;;;;;;;3.62;1.80;;;;;;;17.45;50.12;98728.42;1713553;83;21027;-81
2022/05/22 05:51:06;;;;;;;6.45;1.80;;;;;;;17.52;49.65;98724.47;1701143;84;21562;-79
2022/05/22 05:53:37;;;;;;;3.83;1.67;;;;;;;17.59;50.09;98728.92;1707473;84;21084;-81
2022/05/22 05:56:07;;;;;;;2.17;1.32;;;;;;;17.64;49.35;98728.16;1700260;83;21001;-81
2022/05/22 05:58:36;;;;;;;4.08;2.00;;;;;;;17.73;49.65;98726.30;1690234;84;21076;-80
2022/05/22 06:01:12;;;;;;;5.58;1.62;;;;;;;17.80;49.09;98728.92;1711198;84;21032;-81
2022/05/22 06:03:39;;;;;;;3.37;1.50;;;;;;;17.93;48.92;98728.23;1697823;83;21004;-80
2022/05/22 06:06:11;;;;;;;2.60;1.42;;;;;;;18.02;48.56;98723.70;1696669;84;21600;-80
2022/05/22 06:08:41;;;;;;;3.33;1.50;;;;;;;18.07;48.07;98729.06;1696138;83;21498;-81
2022/05/22 06:11:12;;;;;;;;;;;;;;;18.16;48.04;98729.42;1688679;84;21071;-81
2022/05/22 06:13:40;;;;;;;4.42;1.47;;;;;;;18.25;47.94;98733.64;1700195;84;20137;-80
2022/05/22 06:16:08;;;;;;;4.72;1.80;;;;;;;18.35;47.86;98733.92;1708402;84;21031;-80
2022/05/22 06:18:37;;;;;;;4.62;1.87;;;;;;;18.42;47.41;98732.61;1706241;84;21053;-80
2022/05/22 06:21:17;;;;;;;4.58;1.90;;;;;;;18.54;47.08;98727.48;1684872;84;21117;-82
2022/05/22 06:23:44;;;;;;;4.60;1.75;;;;;;;18.61;47.18;98728.31;1704950;84;21024;-81
2022/05/22 06:26:15;;;;;;;4.42;1.98;;;;;;;18.69;47.19;98721.25;1700503;84;21028;-79
2022/05/22 06:28:44;;;;;;;7.65;1.90;;;;;;;18.79;46.96;98720.19;1700569;84;20987;-80
2022/05/22 06:31:14;;;;;;;8.70;1.67;;;;;;;18.85;46.83;98726.40;1713474;83;21561;-81
2022/05/22 06:33:57;;;;;;;6.15;1.90;;;;;;;18.94;46.65;98724.49;1712508;83;21073;-81
2022/05/22 06:36:28;;;;;;;4.30;1.70;;;;;;;19.08;46.81;98723.11;1713401;82;21062;-80
2022/05/22 06:41:55;;;;;;;6.45;1.87;;;;;;;19.28;45.85;98728.37;1712855;84;21061;-82
2022/05/22 06:44:39;;;;;;;5.30;1.70;;;;;;;19.36;45.50;98728.31;1712926;84;21069;-81
2022/05/22 06:47:26;;;;;;;4.33;1.95;;;;;;;19.48;44.77;98712.53;1713638;84;21553;-81
2022/05/22 06:50:08;;;;;;;3.27;1.77;;;;;;;19.59;45.28;98713.11;1714112;82;21045;-81
2022/05/22 06:52:40;;;;;;;5.92;1.77;;;;;;;19.71;44.99;98717.18;1713489;84;21564;-81
2022/05/22 06:55:10;;;;;;;3.67;1.55;;;;;;;19.79;44.57;98718.84;1713944;82;21045;-80
2022/05/22 06:57:40;;;;;;;7.75;2.10;;;;;;;19.83;44.27;98720.31;1705491;83;21014;-80
2022/05/22 07:00:23;;;;;;;5.15;1.60;;;;;;;19.84;43.86;98714.94;1713778;83;21061;-80
2022/05/22 07:03:08;;;;;;;3.83;1.40;;;;;;;19.87;44.05;98711.23;1651288;87;21092;-81
2022/05/22 07:05:45;;;;;;;3.12;1.40;;;;;;;19.91;43.77;98712.71;1696219;84;21029;-81
2022/05/22 07:08:30;;;;;;;2.80;1.32;;;;;;;19.91;43.00;98712.71;1713597;84;21568;-81
2022/05/22 07:13:46;;;;;;;2.70;1.40;;;;;;;19.97;43.05;98705.69;1713012;83;21109;-81
2022/05/22 07:16:20;;;;;;;5.42;1.52;;;;;;;19.99;42.36;98707.73;1645341;85;21043;-80
2022/05/22 07:18:48;;;;;;;5.33;1.30;;;;;;;20.02;42.30;98702.75;1684481;85;21103;-82
2022/05/22 07:21:17;;;;;;;5.72;1.70;;;;;;;20.06;42.17;98697.14;1684702;84;21072;-82
2022/05/22 07:23:45;;;;;;;3.75;1.52;;;;;;;20.08;42.08;98697.52;1669280;85;21151;-81
2022/05/22 07:26:21;;;;;;;3.77;1.22;;;;;;;20.12;40.98;98702.46;1672572;85;21631;-81
2022/05/22 07:29:02;;;;;;;2.30;1.22;;;;;;;20.22;40.76;98696.89;1667897;85;21075;-83
2022/05/22 07:31:49;;;;;;;3.87;1.47;;;;;;;20.39;41.90;98700.11;1659678;86;21064;-82
2022/05/22 07:34:36;;;;;;;5.85;1.30;;;;;;;20.61;41.49;98697.66;1664948;86;21136;-82
2022/05/22 07:37:12;;;;;;;4.90;1.30;;;;;;;20.89;40.04;98685.08;1688679;84;21016;-83
2022/05/22 07:39:39;;;;;;;3.42;1.27;;;;;;;21.12;40.10;98690.43;1715195;83;21020;-82
2022/05/22 07:42:11;;;;;;;7.30;1.60;;;;;;;21.30;39.45;98686.88;1698573;84;21008;-82
2022/05/22 07:44:56;;;;;;;3.52;1.32;;;;;;;21.39;39.09;98680.91;1713851;83;21055;-81
2022/05/22 07:47:24;;;;;;;4.55;1.40;;;;;;;21.44;38.32;98675.63;1705656;84;21060;-81
2022/05/22 07:50:18;;;;;;;5.08;1.67;;;;;;;21.41;38.03;98679.81;1713915;83;21535;-82
2022/05/22 07:52:50;;;;;;;4.33;1.37;;;;;;;21.47;38.16;98669.74;1707198;84;21042;-81
2022/05/22 07:55:35;;;;;;;2.17;1.20;;;;;;;21.55;38.26;98670.86;1714026;84;21061;-82
2022/05/22 07:58:06;;;;;;;3.50;1.30;;;;;;;21.64;37.57;98671.45;1714025;84;21051;-80
2022/05/22 08:00:40;;;;;;;4.47;1.40;;;;;;;21.75;37.30;98669.31;1711670;84;21032;-81
2022/05/22 08:03:14;;;;;;;6.15;1.27;;;;;;;21.86;37.25;98671.11;1706029;84;21473;-82
2022/05/22 08:05:41;;;;;;;2.77;1.30;;;;;;;21.94;36.73;98663.89;1689140;84;21035;-82
2022/05/22 08:08:10;;;;;;;3.62;1.50;;;;;;;22.03;36.17;98664.01;1713455;83;21116;-83
2022/05/22 08:10:42;;;;;;;3.25;1.72;;;;;;;22.04;36.01;98665.70;1675216;84;20984;-80
2022/05/22 08:13:12;;;;;;;2.25;1.22;;;;;;;22.14;36.29;98656.52;1711142;84;21063;-81
2022/05/22 08:15:42;;;;;;;2.40;1.10;;;;;;;22.27;35.38;98657.75;1713546;84;20995;-82
2022/05/22 08:18:22;;;;;;;2.10;1.10;;;;;;;22.43;35.77;98654.71;1703356;84;21016;-81
2022/05/22 08:20:49;;;;;;;2.75;1.12;;;;;;;22.55;35.23;98647.08;1712479;84;21031;-81
2022/05/22 08:23:20;;;;;;;5.58;1.40;;;;;;;22.70;35.22;98649.44;1700840;83;20972;-83
2022/05/22 08:25:50;;;;;;;4.05;1.20;;;;;;;22.76;35.03;98647.60;1712923;84;20976;-82
2022/05/22 08:28:17;;;;;;;5.33;1.60;;;;;;;22.92;34.75;98647.17;1713974;83;20964;-83
2022/05/22 08:30:45;;;;;;;4.15;1.80;;;;;;;23.15;34.21;98635.52;1713749;84;21095;-82
2022/05/22 08:33:15;;;;;;;5.45;1.37;;;;;;;23.10;35.05;98635.09;1707077;83;21015;-82
2022/05/22 08:35:44;;;;;;;3.83;1.60;;;;;;;23.26;34.00;98628.46;1711228;83;21012;-82
2022/05/22 08:38:12;;;;;;;3.77;1.55;;;;;;;23.32;34.02;98625.31;1707743;84;21016;-82
2022/05/22 08:40:56;;;;;;;5.15;1.70;;;;;;;23.26;33.25;98631.11;1708862;84;20988;-82
2022/05/22 08:43:53;;;;;;;3.67;1.35;;;;;;;23.28;34.27;98622.54;1706296;83;21007;-81
2022/05/22 08:46:29;;;;;;;2.83;1.25;;;;;;;23.32;34.06;98616.87;1712004;84;21056;-82
2022/05/22 08:48:58;;;;;;;2.00;1.30;;;;;;;23.42;33.94;98606.31;1708424;84;22247;-82
2022/05/22 08:51:44;;;;;;;4.17;1.40;;;;;;;23.60;33.78;98608.69;1712300;84;21000;-83
2022/05/22 08:54:22;;;;;;;4.40;1.55;;;;;;;23.75;33.90;98604.34;1710525;84;20984;-83
2022/05/22 08:59:39;;;;;;;3.55;1.20;;;;;;;24.05;33.91;98611.45;1711939;84;20992;-83
2022/05/22 09:02:23;;;;;;;4.47;1.30;;;;;;;24.04;33.25;98607.63;1683172;85;21023;-81
2022/05/22 09:05:10;;;;;;;5.95;1.75;;;;;;;24.15;33.55;98611.01;1702104;84;21067;-82
2022/05/22 09:08:01;;;;;;;3.62;1.30;;;;;;;24.24;32.11;98605.84;1714098;84;21056;-83
2022/05/22 09:10:51;;;;;;;4.03;1.40;;;;;;;24.15;31.47;98604.38;1690150;84;21035;-82
2022/05/22 09:13:38;;;;;;;2.87;1.50;;;;;;;24.25;32.18;98594.23;1698860;82;21005;-81
2022/05/22 09:16:36;;;;;;;2.33;1.35;;;;;;;24.16;32.23;98595.41;1721517;83;20957;-83
2022/05/22 09:19:20;;;;;;;2.72;1.42;;;;;;;23.99;32.80;98595.60;1709758;84;21531;-83
2022/05/22 09:22:16;;;;;;;5.85;1.67;;;;;;;24.09;32.52;98589.45;1708599;83;21003;-84
2022/05/22 09:25:11;;;;;;;4.30;1.57;;;;;;;24.18;32.81;98588.64;1709294;84;21472;-83
2022/05/22 09:28:03;;;;;;;5.30;1.60;;;;;;;24.49;33.21;98577.89;1698105;84;21012;-83
2022/05/22 09:30:56;;;;;;;2.62;1.50;;;;;;;24.78;32.99;98573.44;1712877;84;21039;-83
2022/05/22 09:33:43;;;;;;;;;;;;;;;25.05;31.34;98572.34;1695755;84;21088;-84
2022/05/22 09:36:59;;;;;;;3.58;1.62;;;;;;;24.94;31.08;98565.38;1711414;82;20120;-82
2022/05/22 09:40:17;;;;;;;3.92;1.82;;;;;;;24.93;31.12;98555.70;1712908;83;21015;-82
2022/05/22 09:43:15;;;;;;;2.95;1.22;;;;;;;25.10;32.37;98557.64;1709778;83;21005;-83
2022/05/22 09:46:04;;;;;;;3.87;1.30;;;;;;;25.40;30.67;98554.42;1713232;83;21015;-82
2022/05/22 09:49:14;;;;;;;2.22;1.17;;;;;;;25.52;31.73;98557.23;1717425;83;20976;-82
2022/05/22 09:51:58;;;;;;;2.15;1.10;;;;;;;25.50;29.84;98557.88;1699207;83;21055;-82
2022/05/22 09:54:57;;;;;;;4.15;1.55;;;;;;;25.51;29.90;98554.25;1689657;84;21041;-83
2022/05/22 09:57:35;;;;;;;3.55;1.37;;;;;;;25.31;30.19;98553.98;1702414;83;21094;-81
2022/05/22 10:00:22;;;;;;;6.22;2.02;;;;;;;25.03;30.42;98549.91;1716723;83;20996;-81
2022/05/22 10:03:20;;;;;;;4.67;1.40;;;;;;;25.07;30.41;98553.09;1710873;83;21558;-81
2022/05/22 10:06:05;;;;;;;4.10;1.45;;;;;;;24.83;29.41;98552.23;1716796;83;21015;-81
2022/05/22 10:08:49;;;;;;;4.17;1.45;;;;;;;24.62;29.44;98551.92;1706003;83;21968;-81
2022/05/22 10:11:39;;;;;;;2.55;1.50;;;;;;;24.48;29.62;98550.98;1716185;83;21554;-81
2022/05/22 10:14:47;;;;;;;2.95;1.30;;;;;;;24.27;29.42;98551.94;1706244;83;20971;-82
2022/05/22 10:17:40;;;;;;;2.75;1.20;;;;;;;24.11;30.23;98545.84;1705732;83;21079;-81
2022/05/22 10:20:21;;;;;;;5.00;1.30;;;;;;;24.14;30.16;98546.91;1713578;82;21084;-82
2022/05/22 10:23:11;;;;;;;5.65;1.27;;;;;;;24.24;30.27;98547.42;1700539;83;21013;-81
2022/05/22 10:26:07;;;;;;;2.60;1.32;;;;;;;24.37;30.39;98545.30;1708114;83;21023;-82
2022/05/22 10:28:44;;;;;;;5.40;1.27;;;;;;;24.36;30.52;98538.33;1709923;83;21027;-81
2022/05/22 10:31:19;;;;;;;2.20;1.37;;;;;;;24.52;30.32;98534.64;1716682;83;20988;-81
2022/05/22 10:33:56;;;;;;;2.77;1.42;;;;;;;24.51;29.94;98538.77;1713490;83;21532;-81
2022/05/22 10:36:28;;;;;;;2.02;1.20;;;;;;;24.45;29.51;98541.95;1723537;83;21012;-81
2022/05/22 10:39:11;;;;;;;5.33;1.60;;;;;;;24.44;29.71;98534.98;1723026;83;21056;-82
2022/05/22 10:44:54;;;;;;;3.40;1.40;;;;;;;24.55;30.35;98523.75;1712182;83;21035;-81
2022/05/22 10:47:31;;;;;;;3.50;1.57;;;;;;;24.66;30.42;98528.06;1725208;83;21004;-82
2022/05/22 10:50:01;;;;;;;5.35;1.98;;;;;;;24.76;30.06;98522.23;1724082;83;21028;-82
2022/05/22 10:52:37;;;;;;;4.83;1.90;;;;;;;24.94;30.10;98525.50;1698323;83;21015;-82
2022/05/22 10:55:08;;;;;;;4.30;1.30;;;;;;;25.04;30.16;98520.98;1725925;83;21046;-82
2022/05/22 10:57:35;;;;;;;5.60;1.50;;;;;;;25.10;29.35;98523.56;1723013;83;20996;-82
2022/05/22 11:00:17;;;;;;;6.45;2.00;;;;;;;25.13;29.67;98529.94;1725622;83;21020;-82
2022/05/22 11:02:44;;;;;;;3.50;1.40;;;;;;;25.31;29.87;98525.55;1727561;83;21551;-82
2022/05/22 11:05:28;;;;;;;4.15;1.50;;;;;;;25.50;28.98;98520.63;1724903;82;21056;-82
2022/05/22 11:07:57;;;;;;;2.67;1.20;;;;;;;25.72;29.78;98519.38;1727170;83;21019;-84
2022/05/22 11:10:29;;;;;;;4.42;1.47;;;;;;;26.11;29.31;98518.34;1724104;83;21023;-85
2022/05/22 11:13:06;;;;;;;7.60;1.32;;;;;;;26.48;29.43;98510.66;1723482;83;21039;-82
2022/05/22 11:15:39;;;;;;;3.55;1.72;;;;;;;26.62;28.07;98517.30;1715090;83;21547;-83
2022/05/22 11:18:14;;;;;;;2.85;1.37;;;;;;;26.56;28.05;98507.59;1727326;83;21004;-84
2022/05/22 11:21:01;;;;;;;6.85;1.70;;;;;;;26.41;27.64;98513.12;1727132;82;21079;-83
2022/05/22 11:23:39;;;;;;;2.52;1.10;;;;;;;26.45;28.21;98509.66;1728361;83;21023;-84
2022/05/22 11:27:01;;;;;;;2.52;1.10;;;;;;;26.64;28.33;98514.84;1726279;83;21068;-82
2022/05/22 11:29:51;;;;;;;3.58;1.40;;;;;;;26.57;26.42;98504.42;1728447;83;21027;-83
2022/05/22 11:32:23;;;;;;;3.80;1.70;;;;;;;26.62;28.19;98489.31;1701337;83;21103;-82
2022/05/22 11:35:16;;;;;;;3.62;1.50;;;;;;;26.77;28.12;98491.77;1722556;82;21080;-83
2022/05/22 11:38:12;;;;;;;3.02;1.20;;;;;;;26.77;26.56;98496.59;1707412;84;21088;-83
2022/05/22 11:41:05;;;;;;;2.65;1.42;;;;;;;26.74;27.34;98491.59;1715518;84;21536;-84
2022/05/22 11:43:54;;;;;;;2.37;1.20;;;;;;;27.16;26.31;98474.82;1714601;83;21036;-84
2022/05/22 11:46:46;;;;;;;6.33;1.30;;;;;;;27.48;26.70;98483.17;1715792;83;20993;-84
2022/05/22 11:50:04;;;;;;;5.58;1.40;;;;;;;27.51;27.45;98482.32;1712145;84;21005;-83
2022/05/22 11:53:05;;;;;;;4.28;1.50;;;;;;;27.57;27.07;98485.70;1713702;84;20968;-82
2022/05/22 11:56:11;;;;;;;3.85;1.40;;;;;;;27.52;26.69;98489.86;1714621;84;21015;-84
2022/05/22 11:58:48;;;;;;;3.33;1.70;;;;;;;27.40;26.72;98484.45;1714605;83;20992;-84
2022/05/22 12:01:53;;;;;;;3.27;1.50;;;;;;;27.24;27.13;98482.54;1715905;83;21020;-83
2022/05/22 12:04:52;;;;;;;5.28;1.70;;;;;;;27.01;27.08;98480.91;1715211;84;21040;-83
2022/05/22 12:07:45;;;;;;;3.05;1.37;;;;;;;26.72;26.27;98490.91;1688463;85;21064;-85
2022/05/22 12:10:26;;;;;;;2.92;1.55;;;;;;;26.61;26.75;98491.15;1688377;85;21076;-83
2022/05/22 12:13:19;;;;;;;5.90;2.67;;;;;;;26.60;27.31;98493.49;1704311;84;21064;-84
2022/05/22 12:15:57;;;;;;;6.33;2.40;;;;;;;26.47;27.39;98483.69;1715708;83;21063;-83
2022/05/22 12:18:56;;;;;;;3.65;1.42;;;;;;;26.47;27.45;98483.69;1705222;84;21072;-83
2022/05/22 12:21:40;;;;;;;3.90;1.50;;;;;;;26.45;27.56;98477.17;1715581;82;21183;-84
2022/05/22 12:24:41;;;;;;;3.72;1.57;;;;;;;26.46;27.66;98474.86;1715758;84;21044;-83
2022/05/22 12:27:25;;;;;;;4.72;1.55;;;;;;;26.35;27.58;98471.10;1715889;83;21040;-84
2022/05/22 12:30:12;;;;;;;6.95;1.80;;;;;;;26.28;27.58;98483.35;1715998;84;21012;-84